sensor_id;sensor_type;location;lat;lon;timestamp;temperature;humidity
69393;SHT31;56582;44.624;20.378;2024-01-15T00:00:39;2.79;76.59
69393;SHT31;56582;44.624;20.378;2024-01-15T00:03:05;2.98;75.95
69393;SHT31;56582;44.624;20.378;2024-01-15T00:05:31;3.04;75.69
69393;SHT31;56582;44.624;20.378;2024-01-15T00:07:56;3.14;75.52
69393;SHT31;56582;44.624;20.378;2024-01-15T00:10:23;3.00;75.53
69393;SHT31;56582;44.624;20.378;2024-01-15T00:12:48;2.97;75.79
69393;SHT31;56582;44.624;20.378;2024-01-15T00:15:14;2.97;75.81
69393;SHT31;56582;44.624;20.378;2024-01-15T00:17:40;3.08;75.77
69393;SHT31;56582;44.624;20.378;2024-01-15T00:20:06;2.91;76.04
69393;SHT31;56582;44.624;20.378;2024-01-15T00:22:32;2.93;76.24
69393;SHT31;56582;44.624;20.378;2024-01-15T00:24:58;2.94;76.36
69393;SHT31;56582;44.624;20.378;2024-01-15T00:27:23;3.12;76.03
69393;SHT31;56582;44.624;20.378;2024-01-15T00:29:49;3.12;76.07
69393;SHT31;56582;44.624;20.378;2024-01-15T00:32:19;3.04;76.63
69393;SHT31;56582;44.624;20.378;2024-01-15T00:34:45;3.12;76.47
69393;SHT31;56582;44.624;20.378;2024-01-15T00:37:11;3.22;76.64
69393;SHT31;56582;44.624;20.378;2024-01-15T00:39:36;3.33;76.54
69393;SHT31;56582;44.624;20.378;2024-01-15T00:42:02;3.50;76.41
69393;SHT31;56582;44.624;20.378;2024-01-15T00:44:28;3.43;76.13
69393;SHT31;56582;44.624;20.378;2024-01-15T00:46:53;3.53;75.99
69393;SHT31;56582;44.624;20.378;2024-01-15T00:49:19;3.62;75.92
69393;SHT31;56582;44.624;20.378;2024-01-15T00:51:45;3.69;75.74
69393;SHT31;56582;44.624;20.378;2024-01-15T00:54:10;3.67;75.54
69393;SHT31;56582;44.624;20.378;2024-01-15T00:56:36;3.56;75.67
69393;SHT31;56582;44.624;20.378;2024-01-15T00:59:02;3.63;75.77
69393;SHT31;56582;44.624;20.378;2024-01-15T01:01:27;3.77;75.41
69393;SHT31;56582;44.624;20.378;2024-01-15T01:03:53;3.83;75.47
69393;SHT31;56582;44.624;20.378;2024-01-15T01:06:19;3.89;75.48
69393;SHT31;56582;44.624;20.378;2024-01-15T01:08:44;3.97;75.32
69393;SHT31;56582;44.624;20.378;2024-01-15T01:11:13;4.10;75.06
69393;SHT31;56582;44.624;20.378;2024-01-15T01:13:39;4.20;75.00
69393;SHT31;56582;44.624;20.378;2024-01-15T01:16:05;4.37;74.67
69393;SHT31;56582;44.624;20.378;2024-01-15T01:18:31;4.25;74.49
69393;SHT31;56582;44.624;20.378;2024-01-15T01:20:56;4.35;74.65
69393;SHT31;56582;44.624;20.378;2024-01-15T01:23:22;4.37;74.49
69393;SHT31;56582;44.624;20.378;2024-01-15T01:25:47;4.42;74.40
69393;SHT31;56582;44.624;20.378;2024-01-15T01:28:13;4.41;74.41
69393;SHT31;56582;44.624;20.378;2024-01-15T01:30:38;4.35;74.56
69393;SHT31;56582;44.624;20.378;2024-01-15T01:33:04;4.39;74.70
69393;SHT31;56582;44.624;20.378;2024-01-15T01:35:30;4.21;75.05
69393;SHT31;56582;44.624;20.378;2024-01-15T01:37:55;4.28;75.03
69393;SHT31;56582;44.624;20.378;2024-01-15T01:40:21;4.27;74.90
69393;SHT31;56582;44.624;20.378;2024-01-15T01:42:47;4.20;75.03
69393;SHT31;56582;44.624;20.378;2024-01-15T01:45:13;4.15;75.00
69393;SHT31;56582;44.624;20.378;2024-01-15T01:47:39;4.21;74.70
69393;SHT31;56582;44.624;20.378;2024-01-15T01:50:05;4.10;75.00
69393;SHT31;56582;44.624;20.378;2024-01-15T01:52:31;4.12;74.91
69393;SHT31;56582;44.624;20.378;2024-01-15T01:54:58;4.07;74.80
69393;SHT31;56582;44.624;20.378;2024-01-15T01:57:25;4.14;74.86
69393;SHT31;56582;44.624;20.378;2024-01-15T01:59:50;4.05;74.74
69393;SHT31;56582;44.624;20.378;2024-01-15T02:02:16;3.94;75.04
69393;SHT31;56582;44.624;20.378;2024-01-15T02:04:42;3.83;75.25
69393;SHT31;56582;44.624;20.378;2024-01-15T02:07:07;3.67;75.59
69393;SHT31;56582;44.624;20.378;2024-01-15T02:09:35;3.67;75.86
69393;SHT31;56582;44.624;20.378;2024-01-15T02:12:00;3.76;75.69
69393;SHT31;56582;44.624;20.378;2024-01-15T02:14:26;3.74;75.67
69393;SHT31;56582;44.624;20.378;2024-01-15T02:16:52;3.98;75.12
69393;SHT31;56582;44.624;20.378;2024-01-15T02:19:18;3.91;75.10
69393;SHT31;56582;44.624;20.378;2024-01-15T02:21:43;3.80;75.21
69393;SHT31;56582;44.624;20.378;2024-01-15T02:24:09;3.83;75.18
69393;SHT31;56582;44.624;20.378;2024-01-15T02:26:35;3.83;75.57
69393;SHT31;56582;44.624;20.378;2024-01-15T02:29:03;3.71;75.51
69393;SHT31;56582;44.624;20.378;2024-01-15T02:31:29;3.44;75.85
69393;SHT31;56582;44.624;20.378;2024-01-15T02:33:54;3.77;83.83
69393;SHT31;56582;44.624;20.378;2024-01-15T02:36:20;3.69;76.67
69393;SHT31;56582;44.624;20.378;2024-01-15T02:38:46;3.56;76.09
69393;SHT31;56582;44.624;20.378;2024-01-15T02:41:11;3.64;75.72
69393;SHT31;56582;44.624;20.378;2024-01-15T02:43:39;3.63;75.66
69393;SHT31;56582;44.624;20.378;2024-01-15T02:46:05;3.60;76.00
69393;SHT31;56582;44.624;20.378;2024-01-15T02:48:31;3.67;75.57
69393;SHT31;56582;44.624;20.378;2024-01-15T02:50:56;3.55;75.81
69393;SHT31;56582;44.624;20.378;2024-01-15T02:53:22;3.44;75.89
69393;SHT31;56582;44.624;20.378;2024-01-15T02:55:47;3.42;76.50
69393;SHT31;56582;44.624;20.378;2024-01-15T02:58:14;3.43;76.40
69393;SHT31;56582;44.624;20.378;2024-01-15T03:00:39;3.44;76.23
69393;SHT31;56582;44.624;20.378;2024-01-15T03:03:04;3.38;76.28
69393;SHT31;56582;44.624;20.378;2024-01-15T03:05:30;3.29;76.33
69393;SHT31;56582;44.624;20.378;2024-01-15T03:07:55;3.28;76.60
69393;SHT31;56582;44.624;20.378;2024-01-15T03:10:21;3.07;76.78
69393;SHT31;56582;44.624;20.378;2024-01-15T03:12:46;3.04;76.95
69393;SHT31;56582;44.624;20.378;2024-01-15T03:15:12;2.93;77.10
69393;SHT31;56582;44.624;20.378;2024-01-15T03:17:38;2.97;77.34
69393;SHT31;56582;44.624;20.378;2024-01-15T03:20:04;3.02;77.16
69393;SHT31;56582;44.624;20.378;2024-01-15T03:22:29;3.02;77.10
69393;SHT31;56582;44.624;20.378;2024-01-15T03:24:55;3.07;77.01
69393;SHT31;56582;44.624;20.378;2024-01-15T03:27:20;3.05;77.11
69393;SHT31;56582;44.624;20.378;2024-01-15T03:29:46;3.21;76.79
69393;SHT31;56582;44.624;20.378;2024-01-15T03:32:11;3.15;76.81
69393;SHT31;56582;44.624;20.378;2024-01-15T03:34:37;3.11;76.67
69393;SHT31;56582;44.624;20.378;2024-01-15T03:37:02;3.04;77.14
69393;SHT31;56582;44.624;20.378;2024-01-15T03:39:28;3.11;76.86
69393;SHT31;56582;44.624;20.378;2024-01-15T03:41:55;3.01;77.29
69393;SHT31;56582;44.624;20.378;2024-01-15T03:44:20;3.16;77.34
69393;SHT31;56582;44.624;20.378;2024-01-15T03:46:46;3.25;77.28
69393;SHT31;56582;44.624;20.378;2024-01-15T03:49:11;3.36;77.36
69393;SHT31;56582;44.624;20.378;2024-01-15T03:51:37;3.46;77.25
69393;SHT31;56582;44.624;20.378;2024-01-15T03:54:02;3.62;77.02
69393;SHT31;56582;44.624;20.378;2024-01-15T03:56:28;3.74;76.52
69393;SHT31;56582;44.624;20.378;2024-01-15T03:58:54;3.73;76.58
69393;SHT31;56582;44.624;20.378;2024-01-15T04:01:19;3.70;76.64
69393;SHT31;56582;44.624;20.378;2024-01-15T04:03:48;3.63;76.89
69393;SHT31;56582;44.624;20.378;2024-01-15T04:06:14;3.60;77.26
69393;SHT31;56582;44.624;20.378;2024-01-15T04:08:40;3.80;76.95
69393;SHT31;56582;44.624;20.378;2024-01-15T04:11:05;3.81;76.86
69393;SHT31;56582;44.624;20.378;2024-01-15T04:13:34;3.87;76.66
69393;SHT31;56582;44.624;20.378;2024-01-15T04:16:00;3.76;76.90
69393;SHT31;56582;44.624;20.378;2024-01-15T04:18:26;3.81;78.69
69393;SHT31;56582;44.624;20.378;2024-01-15T04:20:52;3.73;77.60
69393;SHT31;56582;44.624;20.378;2024-01-15T04:23:26;3.98;83.62
69393;SHT31;56582;44.624;20.378;2024-01-15T04:25:52;4.93;93.77
69393;SHT31;56582;44.624;20.378;2024-01-15T04:28:17;6.02;95.80
69393;SHT31;56582;44.624;20.378;2024-01-15T04:30:43;7.20;94.73
69393;SHT31;56582;44.624;20.378;2024-01-15T04:33:09;8.49;92.03
69393;SHT31;56582;44.624;20.378;2024-01-15T04:35:35;8.26;74.01
69393;SHT31;56582;44.624;20.378;2024-01-15T04:38:00;7.95;69.20
69393;SHT31;56582;44.624;20.378;2024-01-15T04:40:26;7.84;81.62
69393;SHT31;56582;44.624;20.378;2024-01-15T04:42:53;7.63;68.75
69393;SHT31;56582;44.624;20.378;2024-01-15T04:45:19;7.48;78.71
69393;SHT31;56582;44.624;20.378;2024-01-15T04:47:48;6.72;67.68
69393;SHT31;56582;44.624;20.378;2024-01-15T04:50:14;6.10;69.18
69393;SHT31;56582;44.624;20.378;2024-01-15T04:52:39;5.55;70.21
69393;SHT31;56582;44.624;20.378;2024-01-15T04:55:05;5.14;71.49
69393;SHT31;56582;44.624;20.378;2024-01-15T04:57:30;4.80;72.63
69393;SHT31;56582;44.624;20.378;2024-01-15T04:59:56;4.34;74.18
69393;SHT31;56582;44.624;20.378;2024-01-15T05:02:21;4.10;75.16
69393;SHT31;56582;44.624;20.378;2024-01-15T05:04:47;3.91;76.12
69393;SHT31;56582;44.624;20.378;2024-01-15T05:07:12;3.91;75.85
69393;SHT31;56582;44.624;20.378;2024-01-15T05:09:38;3.95;76.09
69393;SHT31;56582;44.624;20.378;2024-01-15T05:12:04;4.04;75.97
69393;SHT31;56582;44.624;20.378;2024-01-15T05:14:29;3.98;76.03
69393;SHT31;56582;44.624;20.378;2024-01-15T05:16:55;4.04;75.88
69393;SHT31;56582;44.624;20.378;2024-01-15T05:19:20;3.83;76.25
69393;SHT31;56582;44.624;20.378;2024-01-15T05:21:46;3.81;76.60
69393;SHT31;56582;44.624;20.378;2024-01-15T05:24:11;3.84;79.26
69393;SHT31;56582;44.624;20.378;2024-01-15T05:26:37;3.76;76.69
69393;SHT31;56582;44.624;20.378;2024-01-15T05:29:02;3.86;76.63
69393;SHT31;56582;44.624;20.378;2024-01-15T05:31:28;3.87;76.34
69393;SHT31;56582;44.624;20.378;2024-01-15T05:33:53;3.84;76.52
69393;SHT31;56582;44.624;20.378;2024-01-15T05:36:19;3.84;76.66
69393;SHT31;56582;44.624;20.378;2024-01-15T05:38:44;3.87;76.24
69393;SHT31;56582;44.624;20.378;2024-01-15T05:41:10;3.95;76.17
69393;SHT31;56582;44.624;20.378;2024-01-15T05:43:35;3.84;76.26
69393;SHT31;56582;44.624;20.378;2024-01-15T05:46:01;4.07;75.94
69393;SHT31;56582;44.624;20.378;2024-01-15T05:48:26;4.18;75.56
69393;SHT31;56582;44.624;20.378;2024-01-15T05:50:52;4.14;75.26
69393;SHT31;56582;44.624;20.378;2024-01-15T05:53:18;4.14;75.35
69393;SHT31;56582;44.624;20.378;2024-01-15T05:55:43;4.04;75.22
69393;SHT31;56582;44.624;20.378;2024-01-15T05:58:09;3.98;75.57
69393;SHT31;56582;44.624;20.378;2024-01-15T06:00:34;4.00;75.93
69393;SHT31;56582;44.624;20.378;2024-01-15T06:03:01;4.02;75.58
69393;SHT31;56582;44.624;20.378;2024-01-15T06:05:27;3.90;75.85
69393;SHT31;56582;44.624;20.378;2024-01-15T06:07:52;3.97;75.83
69393;SHT31;56582;44.624;20.378;2024-01-15T06:10:18;3.97;75.69
69393;SHT31;56582;44.624;20.378;2024-01-15T06:12:44;3.95;75.64
69393;SHT31;56582;44.624;20.378;2024-01-15T06:15:10;3.94;75.71
69393;SHT31;56582;44.624;20.378;2024-01-15T06:17:35;4.10;75.45
69393;SHT31;56582;44.624;20.378;2024-01-15T06:20:01;4.17;75.47
69393;SHT31;56582;44.624;20.378;2024-01-15T06:22:26;4.17;75.41
69393;SHT31;56582;44.624;20.378;2024-01-15T06:24:52;4.29;74.99
69393;SHT31;56582;44.624;20.378;2024-01-15T06:27:17;4.48;74.65
69393;SHT31;56582;44.624;20.378;2024-01-15T06:29:45;4.32;75.09
69393;SHT31;56582;44.624;20.378;2024-01-15T06:32:14;4.38;74.79
69393;SHT31;56582;44.624;20.378;2024-01-15T06:34:40;4.39;74.40
69393;SHT31;56582;44.624;20.378;2024-01-15T06:37:05;4.49;74.65
69393;SHT31;56582;44.624;20.378;2024-01-15T06:39:31;4.50;74.78
69393;SHT31;56582;44.624;20.378;2024-01-15T06:41:57;4.50;74.26
69393;SHT31;56582;44.624;20.378;2024-01-15T06:44:22;4.49;74.45
69393;SHT31;56582;44.624;20.378;2024-01-15T06:46:48;4.38;74.38
69393;SHT31;56582;44.624;20.378;2024-01-15T06:49:13;4.32;74.61
69393;SHT31;56582;44.624;20.378;2024-01-15T06:51:39;4.44;74.75
69393;SHT31;56582;44.624;20.378;2024-01-15T06:54:05;4.46;74.35
69393;SHT31;56582;44.624;20.378;2024-01-15T06:56:31;4.45;74.54
69393;SHT31;56582;44.624;20.378;2024-01-15T06:58:57;4.41;74.84
69393;SHT31;56582;44.624;20.378;2024-01-15T07:01:22;4.34;74.87
69393;SHT31;56582;44.624;20.378;2024-01-15T07:03:48;4.38;74.54
69393;SHT31;56582;44.624;20.378;2024-01-15T07:06:14;4.45;74.39
69393;SHT31;56582;44.624;20.378;2024-01-15T07:08:40;4.59;74.51
69393;SHT31;56582;44.624;20.378;2024-01-15T07:11:06;4.55;74.15
69393;SHT31;56582;44.624;20.378;2024-01-15T07:13:32;4.68;74.27
69393;SHT31;56582;44.624;20.378;2024-01-15T07:15:58;4.76;74.07
69393;SHT31;56582;44.624;20.378;2024-01-15T07:18:23;4.75;74.05
69393;SHT31;56582;44.624;20.378;2024-01-15T07:20:49;4.91;73.44
69393;SHT31;56582;44.624;20.378;2024-01-15T07:23:14;4.91;73.44
69393;SHT31;56582;44.624;20.378;2024-01-15T07:25:40;4.90;73.41
69393;SHT31;56582;44.624;20.378;2024-01-15T07:28:06;5.00;73.38
69393;SHT31;56582;44.624;20.378;2024-01-15T07:30:31;5.10;73.24
69393;SHT31;56582;44.624;20.378;2024-01-15T07:32:57;5.10;72.90
69393;SHT31;56582;44.624;20.378;2024-01-15T07:35:22;5.08;73.05
69393;SHT31;56582;44.624;20.378;2024-01-15T07:37:48;5.06;72.54
69393;SHT31;56582;44.624;20.378;2024-01-15T07:40:13;5.04;73.32
69393;SHT31;56582;44.624;20.378;2024-01-15T07:42:39;5.11;73.11
69393;SHT31;56582;44.624;20.378;2024-01-15T07:45:05;5.13;73.19
69393;SHT31;56582;44.624;20.378;2024-01-15T07:47:31;5.14;72.99
69393;SHT31;56582;44.624;20.378;2024-01-15T07:49:57;5.07;72.97
69393;SHT31;56582;44.624;20.378;2024-01-15T07:52:22;5.00;73.17
69393;SHT31;56582;44.624;20.378;2024-01-15T07:54:48;5.06;72.58
69393;SHT31;56582;44.624;20.378;2024-01-15T07:57:13;5.08;73.05
69393;SHT31;56582;44.624;20.378;2024-01-15T07:59:39;5.17;72.85
69393;SHT31;56582;44.624;20.378;2024-01-15T08:02:05;5.34;72.52
69393;SHT31;56582;44.624;20.378;2024-01-15T08:04:31;5.44;72.27
69393;SHT31;56582;44.624;20.378;2024-01-15T08:06:57;5.49;71.55
69393;SHT31;56582;44.624;20.378;2024-01-15T08:09:22;5.51;71.69
69393;SHT31;56582;44.624;20.378;2024-01-15T08:11:48;5.58;71.52
69393;SHT31;56582;44.624;20.378;2024-01-15T08:14:17;5.63;71.72
69393;SHT31;56582;44.624;20.378;2024-01-15T08:16:43;5.62;71.43
69393;SHT31;56582;44.624;20.378;2024-01-15T08:19:09;5.58;71.92
69393;SHT31;56582;44.624;20.378;2024-01-15T08:21:35;5.66;71.66
69393;SHT31;56582;44.624;20.378;2024-01-15T08:24:01;5.49;71.68
69393;SHT31;56582;44.624;20.378;2024-01-15T08:26:31;5.54;71.97
69393;SHT31;56582;44.624;20.378;2024-01-15T08:28:57;5.58;72.01
69393;SHT31;56582;44.624;20.378;2024-01-15T08:31:23;5.72;72.08
69393;SHT31;56582;44.624;20.378;2024-01-15T08:33:49;5.89;71.77
69393;SHT31;56582;44.624;20.378;2024-01-15T08:36:15;5.92;71.81
69393;SHT31;56582;44.624;20.378;2024-01-15T08:38:40;6.11;71.47
69393;SHT31;56582;44.624;20.378;2024-01-15T08:41:06;6.26;71.35
69393;SHT31;56582;44.624;20.378;2024-01-15T08:43:34;6.51;70.27
69393;SHT31;56582;44.624;20.378;2024-01-15T08:45:59;6.51;69.88
69393;SHT31;56582;44.624;20.378;2024-01-15T08:48:25;6.65;69.94
69393;SHT31;56582;44.624;20.378;2024-01-15T08:50:54;6.68;69.98
69393;SHT31;56582;44.624;20.378;2024-01-15T08:53:22;6.69;70.00
69393;SHT31;56582;44.624;20.378;2024-01-15T08:55:47;6.30;70.19
69393;SHT31;56582;44.624;20.378;2024-01-15T08:58:13;6.51;70.34
69393;SHT31;56582;44.624;20.378;2024-01-15T09:00:39;6.42;70.28
69393;SHT31;56582;44.624;20.378;2024-01-15T09:03:05;6.61;70.32
69393;SHT31;56582;44.624;20.378;2024-01-15T09:05:31;6.55;70.22
69393;SHT31;56582;44.624;20.378;2024-01-15T09:07:56;6.44;70.20
69393;SHT31;56582;44.624;20.378;2024-01-15T09:10:22;6.58;70.59
69393;SHT31;56582;44.624;20.378;2024-01-15T09:12:47;6.65;70.89
69393;SHT31;56582;44.624;20.378;2024-01-15T09:15:14;6.85;70.29
69393;SHT31;56582;44.624;20.378;2024-01-15T09:17:40;6.99;70.39
69393;SHT31;56582;44.624;20.378;2024-01-15T09:20:06;7.07;69.47
69393;SHT31;56582;44.624;20.378;2024-01-15T09:22:31;7.23;69.29
69393;SHT31;56582;44.624;20.378;2024-01-15T09:24:57;7.31;69.21
69393;SHT31;56582;44.624;20.378;2024-01-15T09:27:24;7.33;69.44
69393;SHT31;56582;44.624;20.378;2024-01-15T09:29:52;7.40;69.48
69393;SHT31;56582;44.624;20.378;2024-01-15T09:32:17;7.44;69.46
69393;SHT31;56582;44.624;20.378;2024-01-15T09:34:43;7.53;68.84
69393;SHT31;56582;44.624;20.378;2024-01-15T09:37:09;7.54;68.90
69393;SHT31;56582;44.624;20.378;2024-01-15T09:39:34;7.50;69.32
69393;SHT31;56582;44.624;20.378;2024-01-15T09:42:00;7.67;68.23
69393;SHT31;56582;44.624;20.378;2024-01-15T09:44:28;7.64;68.54
69393;SHT31;56582;44.624;20.378;2024-01-15T09:46:55;7.75;68.57
69393;SHT31;56582;44.624;20.378;2024-01-15T09:49:21;7.86;67.97
69393;SHT31;56582;44.624;20.378;2024-01-15T09:51:47;7.95;68.59
69393;SHT31;56582;44.624;20.378;2024-01-15T09:54:12;8.06;67.89
69393;SHT31;56582;44.624;20.378;2024-01-15T09:56:40;8.16;67.76
69393;SHT31;56582;44.624;20.378;2024-01-15T09:59:06;8.22;67.54
69393;SHT31;56582;44.624;20.378;2024-01-15T10:01:32;8.21;67.82
69393;SHT31;56582;44.624;20.378;2024-01-15T10:04:01;8.26;67.17
69393;SHT31;56582;44.624;20.378;2024-01-15T10:06:27;8.36;67.72
69393;SHT31;56582;44.624;20.378;2024-01-15T10:08:57;8.43;66.92
69393;SHT31;56582;44.624;20.378;2024-01-15T10:11:23;8.30;67.14
69393;SHT31;56582;44.624;20.378;2024-01-15T10:13:49;8.30;67.54
69393;SHT31;56582;44.624;20.378;2024-01-15T10:16:22;8.30;67.38
69393;SHT31;56582;44.624;20.378;2024-01-15T10:18:49;8.37;67.73
69393;SHT31;56582;44.624;20.378;2024-01-15T10:21:15;8.43;67.84
69393;SHT31;56582;44.624;20.378;2024-01-15T10:23:41;8.42;67.92
69393;SHT31;56582;44.624;20.378;2024-01-15T10:26:06;8.40;67.51
69393;SHT31;56582;44.624;20.378;2024-01-15T10:28:32;8.56;67.48
69393;SHT31;56582;44.624;20.378;2024-01-15T10:30:58;8.64;67.11
69393;SHT31;56582;44.624;20.378;2024-01-15T10:33:25;8.78;67.16
69393;SHT31;56582;44.624;20.378;2024-01-15T10:36:00;8.78;66.44
69393;SHT31;56582;44.624;20.378;2024-01-15T10:38:26;8.95;66.55
69393;SHT31;56582;44.624;20.378;2024-01-15T10:40:55;8.95;66.39
69393;SHT31;56582;44.624;20.378;2024-01-15T10:43:22;9.04;66.06
69393;SHT31;56582;44.624;20.378;2024-01-15T10:45:49;9.04;66.25
69393;SHT31;56582;44.624;20.378;2024-01-15T10:48:17;9.02;66.44
69393;SHT31;56582;44.624;20.378;2024-01-15T10:50:47;9.12;65.94
69393;SHT31;56582;44.624;20.378;2024-01-15T10:53:14;9.29;66.38
69393;SHT31;56582;44.624;20.378;2024-01-15T10:55:41;9.36;65.49
69393;SHT31;56582;44.624;20.378;2024-01-15T10:58:07;9.49;65.30
69393;SHT31;56582;44.624;20.378;2024-01-15T11:00:35;9.40;65.15
69393;SHT31;56582;44.624;20.378;2024-01-15T11:03:05;9.33;65.16
69393;SHT31;56582;44.624;20.378;2024-01-15T11:05:49;9.47;65.42
69393;SHT31;56582;44.624;20.378;2024-01-15T11:08:17;9.57;65.46
69393;SHT31;56582;44.624;20.378;2024-01-15T11:10:47;9.70;65.49
69393;SHT31;56582;44.624;20.378;2024-01-15T11:16:06;9.90;65.56
69393;SHT31;56582;44.624;20.378;2024-01-15T11:18:42;9.80;65.24
69393;SHT31;56582;44.624;20.378;2024-01-15T11:23:46;10.12;65.02
69393;SHT31;56582;44.624;20.378;2024-01-15T11:28:59;10.32;64.07
69393;SHT31;56582;44.624;20.378;2024-01-15T11:34:10;10.14;65.12
69393;SHT31;56582;44.624;20.378;2024-01-15T11:42:03;10.14;64.20
69393;SHT31;56582;44.624;20.378;2024-01-15T11:44:30;9.91;65.47
69393;SHT31;56582;44.624;20.378;2024-01-15T11:47:08;9.84;64.76
69393;SHT31;56582;44.624;20.378;2024-01-15T11:52:25;9.79;65.53
69393;SHT31;56582;44.624;20.378;2024-01-15T11:58:04;9.74;66.68
69393;SHT31;56582;44.624;20.378;2024-01-15T12:00:46;9.47;66.56
69393;SHT31;56582;44.624;20.378;2024-01-15T12:03:14;9.52;66.94
69393;SHT31;56582;44.624;20.378;2024-01-15T12:05:40;9.49;66.31
69393;SHT31;56582;44.624;20.378;2024-01-15T12:08:08;9.43;66.99
69393;SHT31;56582;44.624;20.378;2024-01-15T12:10:40;9.59;66.67
69393;SHT31;56582;44.624;20.378;2024-01-15T12:13:11;9.59;67.11
69393;SHT31;56582;44.624;20.378;2024-01-15T12:15:37;9.33;66.78
69393;SHT31;56582;44.624;20.378;2024-01-15T12:18:07;9.32;66.64
69393;SHT31;56582;44.624;20.378;2024-01-15T12:20:33;9.28;67.16
69393;SHT31;56582;44.624;20.378;2024-01-15T12:23:00;9.28;67.37
69393;SHT31;56582;44.624;20.378;2024-01-15T12:25:26;9.23;67.08
69393;SHT31;56582;44.624;20.378;2024-01-15T12:27:53;9.10;68.45
69393;SHT31;56582;44.624;20.378;2024-01-15T12:30:19;9.10;68.62
69393;SHT31;56582;44.624;20.378;2024-01-15T12:32:45;8.92;69.10
69393;SHT31;56582;44.624;20.378;2024-01-15T12:35:12;8.98;69.37
69393;SHT31;56582;44.624;20.378;2024-01-15T12:37:42;9.08;70.05
69393;SHT31;56582;44.624;20.378;2024-01-15T12:40:08;8.89;69.95
69393;SHT31;56582;44.624;20.378;2024-01-15T12:42:39;8.61;71.44
69393;SHT31;56582;44.624;20.378;2024-01-15T12:45:06;8.80;71.08
69393;SHT31;56582;44.624;20.378;2024-01-15T12:47:31;8.74;71.22
69393;SHT31;56582;44.624;20.378;2024-01-15T12:49:57;8.77;71.59
69393;SHT31;56582;44.624;20.378;2024-01-15T12:52:29;8.74;71.76
69393;SHT31;56582;44.624;20.378;2024-01-15T12:54:55;8.68;71.41
69393;SHT31;56582;44.624;20.378;2024-01-15T12:57:20;8.82;70.94
69393;SHT31;56582;44.624;20.378;2024-01-15T12:59:46;8.71;71.19
69393;SHT31;56582;44.624;20.378;2024-01-15T13:02:13;8.67;71.21
69393;SHT31;56582;44.624;20.378;2024-01-15T13:04:38;8.65;71.50
69393;SHT31;56582;44.624;20.378;2024-01-15T13:07:05;8.68;72.13
69393;SHT31;56582;44.624;20.378;2024-01-15T13:09:30;8.81;71.58
69393;SHT31;56582;44.624;20.378;2024-01-15T13:11:57;8.61;72.10
69393;SHT31;56582;44.624;20.378;2024-01-15T13:14:22;8.61;71.74
69393;SHT31;56582;44.624;20.378;2024-01-15T13:16:48;8.47;72.38
69393;SHT31;56582;44.624;20.378;2024-01-15T13:19:13;8.36;72.79
69393;SHT31;56582;44.624;20.378;2024-01-15T13:21:40;8.60;72.66
69393;SHT31;56582;44.624;20.378;2024-01-15T13:24:06;8.47;73.41
69393;SHT31;56582;44.624;20.378;2024-01-15T13:26:32;8.49;74.22
69393;SHT31;56582;44.624;20.378;2024-01-15T13:29:01;8.46;74.11
69393;SHT31;56582;44.624;20.378;2024-01-15T13:31:30;8.54;74.21
69393;SHT31;56582;44.624;20.378;2024-01-15T13:33:56;8.33;74.77
69393;SHT31;56582;44.624;20.378;2024-01-15T13:36:22;8.32;75.03
69393;SHT31;56582;44.624;20.378;2024-01-15T13:38:52;8.26;75.92
69393;SHT31;56582;44.624;20.378;2024-01-15T13:41:19;8.30;76.45
69393;SHT31;56582;44.624;20.378;2024-01-15T13:43:49;8.17;76.78
69393;SHT31;56582;44.624;20.378;2024-01-15T13:46:16;7.84;78.25
69393;SHT31;56582;44.624;20.378;2024-01-15T13:48:42;7.58;78.81
69393;SHT31;56582;44.624;20.378;2024-01-15T13:51:08;7.50;79.28
69393;SHT31;56582;44.624;20.378;2024-01-15T13:53:34;7.19;80.52
69393;SHT31;56582;44.624;20.378;2024-01-15T13:55:59;7.30;80.37
69393;SHT31;56582;44.624;20.378;2024-01-15T13:58:25;7.27;80.81
69393;SHT31;56582;44.624;20.378;2024-01-15T14:00:51;7.17;81.02
69393;SHT31;56582;44.624;20.378;2024-01-15T14:03:17;7.03;81.61
69393;SHT31;56582;44.624;20.378;2024-01-15T14:05:44;6.93;82.12
69393;SHT31;56582;44.624;20.378;2024-01-15T14:08:10;6.88;82.68
69393;SHT31;56582;44.624;20.378;2024-01-15T14:10:36;6.79;83.42
69393;SHT31;56582;44.624;20.378;2024-01-15T14:13:03;6.86;83.19
69393;SHT31;56582;44.624;20.378;2024-01-15T14:15:29;6.97;83.10
69393;SHT31;56582;44.624;20.378;2024-01-15T14:17:55;6.96;83.03
69393;SHT31;56582;44.624;20.378;2024-01-15T14:20:25;7.02;82.93
69393;SHT31;56582;44.624;20.378;2024-01-15T14:22:50;7.07;83.10
69393;SHT31;56582;44.624;20.378;2024-01-15T14:25:16;6.95;83.44
69393;SHT31;56582;44.624;20.378;2024-01-15T14:27:41;6.75;84.47
69393;SHT31;56582;44.624;20.378;2024-01-15T14:30:07;6.91;84.34
69393;SHT31;56582;44.624;20.378;2024-01-15T14:32:34;7.03;84.02
69393;SHT31;56582;44.624;20.378;2024-01-15T14:34:59;7.02;84.25
69393;SHT31;56582;44.624;20.378;2024-01-15T14:37:25;6.82;84.67
69393;SHT31;56582;44.624;20.378;2024-01-15T14:39:50;6.78;85.03
69393;SHT31;56582;44.624;20.378;2024-01-15T14:42:17;6.78;84.88
69393;SHT31;56582;44.624;20.378;2024-01-15T14:44:43;6.79;84.91
69393;SHT31;56582;44.624;20.378;2024-01-15T14:47:08;6.75;85.14
69393;SHT31;56582;44.624;20.378;2024-01-15T14:49:34;6.65;85.12
69393;SHT31;56582;44.624;20.378;2024-01-15T14:52:00;6.81;85.98
69393;SHT31;56582;44.624;20.378;2024-01-15T14:54:25;6.84;86.24
69393;SHT31;56582;44.624;20.378;2024-01-15T14:56:51;6.82;86.22
69393;SHT31;56582;44.624;20.378;2024-01-15T14:59:18;6.85;86.83
69393;SHT31;56582;44.624;20.378;2024-01-15T15:01:43;6.79;87.00
69393;SHT31;56582;44.624;20.378;2024-01-15T15:04:09;6.68;86.96
69393;SHT31;56582;44.624;20.378;2024-01-15T15:06:36;6.65;87.01
69393;SHT31;56582;44.624;20.378;2024-01-15T15:09:03;6.58;87.28
69393;SHT31;56582;44.624;20.378;2024-01-15T15:11:34;6.34;89.72
69393;SHT31;56582;44.624;20.378;2024-01-15T15:14:00;6.00;91.23
69393;SHT31;56582;44.624;20.378;2024-01-15T15:16:26;5.96;92.01
69393;SHT31;56582;44.624;20.378;2024-01-15T15:18:53;6.17;91.63
69393;SHT31;56582;44.624;20.378;2024-01-15T15:21:20;6.26;91.22
69393;SHT31;56582;44.624;20.378;2024-01-15T15:23:45;6.27;90.88
69393;SHT31;56582;44.624;20.378;2024-01-15T15:26:12;6.10;91.39
69393;SHT31;56582;44.624;20.378;2024-01-15T15:28:38;5.96;92.56
69393;SHT31;56582;44.624;20.378;2024-01-15T15:31:04;5.90;93.13
69393;SHT31;56582;44.624;20.378;2024-01-15T15:33:29;5.89;93.17
69393;SHT31;56582;44.624;20.378;2024-01-15T15:35:55;5.92;92.84
69393;SHT31;56582;44.624;20.378;2024-01-15T15:38:20;6.23;91.94
69393;SHT31;56582;44.624;20.378;2024-01-15T15:40:46;6.16;92.04
69393;SHT31;56582;44.624;20.378;2024-01-15T15:43:11;6.30;91.51
69393;SHT31;56582;44.624;20.378;2024-01-15T15:45:37;6.26;91.49